createdAt,value
2019-03-21T00:01:47.293Z,98487.25
2019-03-21T00:04:13.298Z,98482.91
2019-03-21T00:06:39.229Z,98482.84
2019-03-21T00:09:07.085Z,98483.00
2019-03-21T00:11:55.558Z,98486.16
2019-03-21T00:14:25.177Z,98481.45
2019-03-21T00:16:50.990Z,98483.13
2019-03-21T00:19:16.839Z,98481.27
2019-03-21T00:21:42.682Z,98481.75
2019-03-21T00:24:08.545Z,98480.73
2019-03-21T00:26:34.375Z,98484.58
2019-03-21T00:29:00.210Z,98480.73
2019-03-21T00:31:26.053Z,98478.79
2019-03-21T00:33:51.889Z,98485.00
2019-03-21T00:36:17.715Z,98479.25
2019-03-21T00:38:43.555Z,98488.48
2019-03-21T00:41:09.388Z,98484.73
2019-03-21T00:43:35.228Z,98481.23
2019-03-21T00:46:01.036Z,98482.31
2019-03-21T00:48:26.854Z,98483.10
2019-03-21T00:50:52.679Z,98485.16
2019-03-21T00:53:18.529Z,98480.66
2019-03-21T00:55:47.647Z,98477.97
2019-03-21T00:58:13.551Z,98485.86
2019-03-21T01:00:45.862Z,98488.31
2019-03-21T01:03:12.077Z,98479.25
2019-03-21T01:05:38.072Z,98485.77
2019-03-21T01:08:03.829Z,98485.81
2019-03-21T01:10:30.764Z,98482.59
2019-03-21T01:12:56.601Z,98485.02
2019-03-21T01:15:22.553Z,98479.19
2019-03-21T01:17:48.370Z,98480.20
2019-03-21T01:20:14.923Z,98480.53
2019-03-21T01:22:41.570Z,98481.44
2019-03-21T01:25:11.196Z,98478.17
2019-03-21T01:27:37.009Z,98477.24
2019-03-21T01:30:06.618Z,98468.28
2019-03-21T01:32:32.484Z,98474.86
2019-03-21T01:34:58.312Z,98466.27
2019-03-21T01:37:24.153Z,98466.27
2019-03-21T01:39:49.966Z,98475.53
2019-03-21T01:42:15.820Z,98477.22
2019-03-21T01:44:41.661Z,98472.73
2019-03-21T01:47:07.497Z,98472.84
2019-03-21T01:49:33.317Z,98474.94
2019-03-21T01:51:59.185Z,98476.36
2019-03-21T01:54:25.008Z,98466.84
2019-03-21T01:56:50.841Z,98461.75
2019-03-21T01:59:16.673Z,98459.66
2019-03-21T02:01:42.512Z,98453.63
2019-03-21T02:04:08.350Z,98457.85
2019-03-21T02:06:34.179Z,98447.39
2019-03-21T02:09:00.040Z,98450.58
2019-03-21T02:11:25.865Z,98444.27
2019-03-21T02:13:51.694Z,98443.23
2019-03-21T02:16:17.513Z,98443.32
2019-03-21T02:18:43.344Z,98441.14
2019-03-21T02:21:09.160Z,98443.32
2019-03-21T02:23:34.969Z,98442.81
2019-03-21T02:26:00.799Z,98436.95
2019-03-21T02:28:26.636Z,98434.02
2019-03-21T02:30:52.469Z,98437.91
2019-03-21T02:33:31.267Z,98427.34
2019-03-21T02:35:57.318Z,98426.05
2019-03-21T02:38:23.246Z,98420.17
2019-03-21T02:40:51.613Z,98417.92
2019-03-21T02:43:17.433Z,98420.29
2019-03-21T02:45:43.250Z,98418.10
2019-03-21T02:48:09.080Z,98418.61
2019-03-21T02:50:42.599Z,98412.91
2019-03-21T02:53:08.447Z,98403.93
2019-03-21T02:55:34.362Z,98398.73
2019-03-21T02:58:00.190Z,98393.75
2019-03-21T03:00:38.673Z,98393.22
2019-03-21T03:03:05.518Z,98384.24
2019-03-21T03:05:32.654Z,98391.53
2019-03-21T03:07:58.503Z,98390.50
2019-03-21T03:10:36.337Z,98394.29
2019-03-21T03:13:02.681Z,98406.33
2019-03-21T03:15:33.290Z,98411.81
2019-03-21T03:17:59.990Z,98413.55
2019-03-21T03:20:25.873Z,98409.73
2019-03-21T03:22:51.745Z,98408.94
2019-03-21T03:25:18.879Z,98413.64
2019-03-21T03:27:50.437Z,98415.63
2019-03-21T03:30:19.085Z,98415.99
2019-03-21T03:32:44.883Z,98411.42
2019-03-21T03:35:11.963Z,98413.94
2019-03-21T03:37:37.948Z,98418.23
2019-03-21T03:40:10.584Z,98417.54
2019-03-21T03:42:36.411Z,98415.73
2019-03-21T03:45:05.857Z,98419.62
2019-03-21T03:47:31.669Z,98430.63
2019-03-21T03:49:57.511Z,98421.94
2019-03-21T03:52:23.334Z,98422.54
2019-03-21T03:54:49.159Z,98432.41
2019-03-21T03:57:14.995Z,98432.43
2019-03-21T03:59:40.919Z,98429.53
2019-03-21T04:02:06.758Z,98426.52
2019-03-21T04:04:32.592Z,98431.80
2019-03-21T04:06:58.403Z,98436.91
2019-03-21T04:09:24.224Z,98428.42
2019-03-21T04:11:50.043Z,98429.11
2019-03-21T04:14:15.874Z,98434.02
2019-03-21T04:16:41.706Z,98440.30
2019-03-21T04:19:07.519Z,98435.70
2019-03-21T04:21:33.349Z,98440.30
2019-03-21T04:23:59.995Z,98438.02
2019-03-21T04:26:29.886Z,98435.80
2019-03-21T04:28:55.994Z,98444.11
2019-03-21T04:31:21.822Z,98440.08
2019-03-21T04:33:50.545Z,98434.59
2019-03-21T04:36:16.374Z,98442.38
2019-03-21T04:38:42.322Z,98442.67
2019-03-21T04:41:08.184Z,98441.78
2019-03-21T04:43:34.134Z,98437.38
2019-03-21T04:46:03.659Z,98439.16
2019-03-21T04:48:27.733Z,98438.56
2019-03-21T04:50:53.548Z,98438.66
2019-03-21T04:53:19.401Z,98443.85
2019-03-21T04:55:45.241Z,98415.72
2019-03-21T04:58:11.090Z,98415.72
2019-03-21T05:00:45.106Z,98454.16
2019-03-21T05:03:19.832Z,98460.98
2019-03-21T05:05:45.644Z,98462.02
2019-03-21T05:08:11.472Z,98457.15
2019-03-21T05:10:37.328Z,98454.84
2019-03-21T05:13:03.151Z,98456.52
2019-03-21T05:15:37.940Z,98458.95
2019-03-21T05:18:06.882Z,98459.28
2019-03-21T05:20:32.711Z,98462.84
2019-03-21T05:22:58.540Z,98460.55
2019-03-21T05:25:25.162Z,98467.83
2019-03-21T05:27:50.986Z,98466.08
2019-03-21T05:30:32.315Z,98468.37
2019-03-21T05:32:58.138Z,98471.66
2019-03-21T05:35:23.989Z,98472.71
2019-03-21T05:37:49.820Z,98476.39
2019-03-21T05:40:16.530Z,98469.62
2019-03-21T05:42:49.159Z,98474.91
2019-03-21T05:45:17.992Z,98476.90
2019-03-21T05:47:43.835Z,98475.25
2019-03-21T05:50:15.366Z,98471.16
2019-03-21T05:52:41.208Z,98471.30
2019-03-21T05:55:09.033Z,98470.92
2019-03-21T05:57:34.869Z,98472.34
2019-03-21T06:00:00.702Z,98475.63
2019-03-21T06:02:26.538Z,98480.75
2019-03-21T06:04:52.337Z,98480.02
2019-03-21T06:07:21.870Z,98479.55
2019-03-21T06:09:47.719Z,98479.25
2019-03-21T06:12:13.554Z,98476.55
2019-03-21T06:14:46.024Z,98478.76
2019-03-21T06:17:11.853Z,98476.74
2019-03-21T06:19:59.602Z,98482.45
2019-03-21T06:22:31.950Z,98479.34
2019-03-21T06:25:15.885Z,98480.95
2019-03-21T06:27:41.779Z,98484.15
2019-03-21T06:30:07.821Z,98486.02
2019-03-21T06:32:33.649Z,98491.49
2019-03-21T06:34:59.476Z,98492.91
2019-03-21T06:37:25.305Z,98489.80
2019-03-21T06:39:51.132Z,98487.70
2019-03-21T06:42:16.986Z,98489.12
2019-03-21T06:44:42.820Z,98483.04
2019-03-21T06:47:08.731Z,98488.80
2019-03-21T06:49:34.555Z,98496.58
2019-03-21T06:52:00.417Z,98498.20
2019-03-21T06:54:26.251Z,98491.27
2019-03-21T06:56:52.069Z,98489.04
2019-03-21T06:59:17.888Z,98495.75
2019-03-21T07:01:43.704Z,98487.80
2019-03-21T07:04:09.535Z,98493.67
2019-03-21T07:06:35.362Z,98492.91
2019-03-21T07:09:01.199Z,98495.80
2019-03-21T07:11:27.025Z,98503.71
2019-03-21T07:13:52.860Z,98495.95
2019-03-21T07:16:18.687Z,98499.88
2019-03-21T07:18:44.541Z,98499.70
2019-03-21T07:21:10.381Z,98493.09
2019-03-21T07:23:36.220Z,98493.09
2019-03-21T07:26:02.022Z,98495.70
2019-03-21T07:28:27.884Z,98494.66
2019-03-21T07:30:55.620Z,98486.13
2019-03-21T07:33:21.453Z,98486.13
2019-03-21T07:35:47.283Z,98498.14
2019-03-21T07:38:13.100Z,98500.27
2019-03-21T07:40:38.934Z,98495.45
2019-03-21T07:43:04.840Z,98495.17
2019-03-21T07:45:30.694Z,98495.09
2019-03-21T07:47:56.533Z,98502.66
2019-03-21T07:50:22.377Z,98499.56
2019-03-21T07:52:48.234Z,98497.14
2019-03-21T07:55:14.087Z,98495.28
2019-03-21T07:57:39.910Z,98492.66
2019-03-21T08:00:16.477Z,98494.03
2019-03-21T08:02:42.285Z,98493.07
2019-03-21T08:05:09.391Z,98492.00
2019-03-21T08:07:35.235Z,98488.17
2019-03-21T08:10:01.050Z,98495.31
2019-03-21T08:12:26.874Z,98495.31
2019-03-21T08:14:52.705Z,98493.53
2019-03-21T08:17:18.553Z,98502.52
2019-03-21T08:19:44.371Z,98503.53
2019-03-21T08:22:10.199Z,98495.88
2019-03-21T08:24:36.034Z,98499.81
2019-03-21T08:27:01.877Z,98495.09
2019-03-21T08:29:27.696Z,98501.45
2019-03-21T08:31:53.535Z,98491.95
2019-03-21T08:34:19.361Z,98495.78
2019-03-21T08:36:45.171Z,98496.98
2019-03-21T08:39:10.995Z,98500.59
2019-03-21T08:41:36.822Z,98495.75
2019-03-21T08:44:02.748Z,98499.81
2019-03-21T08:46:28.585Z,98503.34
2019-03-21T08:48:54.391Z,98499.55
2019-03-21T08:51:20.217Z,98499.28
2019-03-21T08:53:46.025Z,98489.30
2019-03-21T08:56:11.842Z,98499.41
2019-03-21T08:58:37.684Z,98493.60
2019-03-21T09:01:03.811Z,98492.80
2019-03-21T09:03:29.640Z,98483.43
2019-03-21T09:05:55.477Z,98483.43
2019-03-21T09:08:21.317Z,98485.20
2019-03-21T09:10:47.150Z,98482.22
2019-03-21T09:13:12.977Z,98483.26
2019-03-21T09:15:38.802Z,98478.61
2019-03-21T09:18:04.625Z,98477.23
2019-03-21T09:20:30.466Z,98475.37
2019-03-21T09:22:56.290Z,98476.25
2019-03-21T09:25:22.123Z,98475.95
2019-03-21T09:27:47.951Z,98478.41
2019-03-21T09:30:13.975Z,98479.24
2019-03-21T09:32:39.843Z,98468.72
2019-03-21T09:35:06.078Z,98469.02
2019-03-21T09:37:31.920Z,98469.02
2019-03-21T09:39:57.726Z,98465.31
2019-03-21T09:42:23.559Z,98472.99
2019-03-21T09:44:49.376Z,98469.84
2019-03-21T09:47:15.181Z,98469.29
2019-03-21T09:49:41.010Z,98472.67
2019-03-21T09:52:06.857Z,98473.72
2019-03-21T09:54:32.692Z,98470.48
2019-03-21T09:56:58.514Z,98470.52
2019-03-21T09:59:24.339Z,98471.78
2019-03-21T10:01:50.164Z,98472.56
2019-03-21T10:04:15.985Z,98475.44
2019-03-21T10:06:41.806Z,98483.60
2019-03-21T10:09:07.941Z,98479.45
2019-03-21T10:11:33.892Z,98481.50
2019-03-21T10:13:59.693Z,98479.85
2019-03-21T10:16:25.522Z,98477.37
2019-03-21T10:18:51.345Z,98478.09
2019-03-21T10:21:17.167Z,98479.13
2019-03-21T10:23:42.983Z,98480.84
2019-03-21T10:26:08.825Z,98484.17
2019-03-21T10:28:34.663Z,98481.43
2019-03-21T10:31:00.501Z,98473.48
2019-03-21T10:33:26.330Z,98478.96
2019-03-21T10:35:52.132Z,98470.45
2019-03-21T10:38:17.976Z,98473.72
2019-03-21T10:40:43.805Z,98470.48
2019-03-21T10:43:10.722Z,98462.01
2019-03-21T10:45:36.667Z,98462.73
2019-03-21T10:48:03.203Z,98449.67
2019-03-21T10:50:37.427Z,98449.27
2019-03-21T10:53:03.667Z,98449.27
2019-03-21T10:55:29.490Z,98434.44
2019-03-21T10:57:55.309Z,98448.47
2019-03-21T11:00:21.227Z,98443.61
2019-03-21T11:02:47.064Z,98437.52
2019-03-21T11:05:12.891Z,98436.73
2019-03-21T11:07:38.737Z,98438.32
2019-03-21T11:10:05.564Z,98435.38
2019-03-21T11:12:31.381Z,98436.16
2019-03-21T11:14:57.241Z,98437.13
2019-03-21T11:17:23.053Z,98427.88
2019-03-21T11:19:48.866Z,98435.90
2019-03-21T11:22:14.696Z,98424.22
2019-03-21T11:24:40.603Z,98422.19
2019-03-21T11:27:06.452Z,98417.83
2019-03-21T11:29:32.256Z,98417.23
2019-03-21T11:31:58.102Z,98414.63
2019-03-21T11:34:23.922Z,98414.81
2019-03-21T11:36:49.769Z,98411.75
2019-03-21T11:39:15.587Z,98412.56
2019-03-21T11:41:41.457Z,98409.41
2019-03-21T11:44:07.292Z,98394.77
2019-03-21T11:46:33.114Z,98394.87
2019-03-21T11:48:58.960Z,98390.52
2019-03-21T11:51:24.821Z,98391.36
2019-03-21T11:53:50.736Z,98380.84
2019-03-21T11:56:16.566Z,98377.24
2019-03-21T11:58:42.422Z,98365.03
2019-03-21T12:01:08.256Z,98368.92
2019-03-21T12:03:34.083Z,98371.82
2019-03-21T12:05:59.922Z,98364.73
2019-03-21T12:08:25.747Z,98364.16
2019-03-21T12:10:51.591Z,98365.17
2019-03-21T12:13:17.428Z,98357.61
2019-03-21T12:15:43.266Z,98360.77
2019-03-21T12:18:09.079Z,98358.42
2019-03-21T12:20:34.921Z,98352.55
2019-03-21T12:23:00.931Z,98348.19
2019-03-21T12:25:26.783Z,98354.23
2019-03-21T12:27:52.614Z,98352.45
2019-03-21T12:30:30.007Z,98341.17
2019-03-21T12:32:55.934Z,98341.61
2019-03-21T12:35:21.745Z,98334.81
2019-03-21T12:37:47.566Z,98344.39
2019-03-21T12:40:13.395Z,98329.91
2019-03-21T12:42:39.261Z,98326.36
2019-03-21T12:45:08.840Z,98332.20
2019-03-21T12:47:34.766Z,98326.10
2019-03-21T12:50:00.603Z,98316.56
2019-03-21T12:52:26.450Z,98323.58
2019-03-21T12:54:52.262Z,98315.48
2019-03-21T12:57:18.068Z,98312.74
2019-03-21T12:59:43.895Z,98317.70
2019-03-21T13:02:09.746Z,98314.02
2019-03-21T13:04:35.578Z,98309.59
2019-03-21T13:07:01.483Z,98301.80
2019-03-21T13:09:27.324Z,98300.97
2019-03-21T13:11:53.132Z,98293.77
2019-03-21T13:14:18.972Z,98300.59
2019-03-21T13:16:44.789Z,98299.27
2019-03-21T13:19:10.623Z,98291.21
2019-03-21T13:21:36.456Z,98299.16
2019-03-21T13:24:02.528Z,98294.48
2019-03-21T13:26:28.336Z,98290.56
2019-03-21T13:28:54.153Z,98282.19
2019-03-21T13:31:20.008Z,98290.31
2019-03-21T13:33:45.929Z,98290.45
2019-03-21T13:36:11.873Z,98283.73
2019-03-21T13:38:37.704Z,98277.72
2019-03-21T13:41:03.565Z,98283.06
2019-03-21T13:43:29.366Z,98282.12
2019-03-21T13:45:55.183Z,98274.95
2019-03-21T13:48:21.026Z,98277.83
2019-03-21T13:50:46.861Z,98270.83
2019-03-21T13:53:18.690Z,98264.63
2019-03-21T13:55:40.437Z,98268.67
2019-03-21T13:58:06.263Z,98268.06
2019-03-21T14:00:32.098Z,98265.70
2019-03-21T14:02:57.919Z,98252.77
2019-03-21T14:05:23.726Z,98255.08
2019-03-21T14:07:49.560Z,98255.93
2019-03-21T14:10:15.690Z,98253.29
2019-03-21T14:12:41.649Z,98241.86
2019-03-21T14:15:10.679Z,98236.47
2019-03-21T14:17:36.508Z,98235.98
2019-03-21T14:20:04.529Z,98231.27
2019-03-21T14:22:30.353Z,98226.58
2019-03-21T14:24:56.205Z,98224.16
2019-03-21T14:27:22.062Z,98227.67
2019-03-21T14:29:48.395Z,98229.83
2019-03-21T14:32:14.226Z,98222.64
2019-03-21T14:34:40.277Z,98221.69
2019-03-21T14:37:06.132Z,98218.75
2019-03-21T14:39:32.011Z,98211.81
2019-03-21T14:41:57.864Z,98210.76
2019-03-21T14:44:23.979Z,98211.19
2019-03-21T14:46:49.820Z,98207.02
2019-03-21T14:49:15.659Z,98212.40
2019-03-21T14:51:41.511Z,98204.72
2019-03-21T14:54:07.332Z,98202.23
2019-03-21T14:56:33.171Z,98200.76
2019-03-21T14:58:59.004Z,98200.93
2019-03-21T15:01:24.855Z,98206.95
2019-03-21T15:03:50.673Z,98197.84
2019-03-21T15:06:16.525Z,98202.28
2019-03-21T15:08:42.361Z,98194.42
2019-03-21T15:11:16.510Z,98194.73
2019-03-21T15:13:35.978Z,98197.95
2019-03-21T15:16:01.860Z,98191.17
2019-03-21T15:18:27.722Z,98195.42
2019-03-21T15:20:53.565Z,98191.12
2019-03-21T15:23:19.418Z,98194.82
2019-03-21T15:25:45.371Z,98186.87
2019-03-21T15:28:11.206Z,98183.77
2019-03-21T15:30:37.052Z,98182.27
2019-03-21T15:33:02.999Z,98179.39
2019-03-21T15:35:28.946Z,98179.69
2019-03-21T15:37:54.840Z,98185.25
2019-03-21T15:40:20.693Z,98173.26
2019-03-21T15:42:46.568Z,98173.56
2019-03-21T15:45:22.175Z,98168.52
2019-03-21T15:47:42.660Z,98171.47
2019-03-21T15:50:11.518Z,98160.94
2019-03-21T15:52:37.365Z,98159.05
2019-03-21T15:55:04.618Z,98156.63
2019-03-21T15:57:32.008Z,98162.36
2019-03-21T15:59:57.925Z,98165.48
2019-03-21T16:02:23.756Z,98163.66
2019-03-21T16:04:49.670Z,98157.20
2019-03-21T16:07:15.502Z,98158.94
2019-03-21T16:09:41.346Z,98156.90
2019-03-21T16:12:07.194Z,98160.27
2019-03-21T16:14:33.037Z,98158.94
2019-03-21T16:16:58.873Z,98157.44
2019-03-21T16:19:24.734Z,98160.30
2019-03-21T16:21:50.688Z,98160.49
2019-03-21T16:24:16.530Z,98157.28
2019-03-21T16:26:42.372Z,98165.80
2019-03-21T16:29:10.142Z,98159.70
2019-03-21T16:31:35.941Z,98159.40
2019-03-21T16:34:01.778Z,98160.06
2019-03-21T16:36:27.617Z,98161.71
2019-03-21T16:38:53.424Z,98164.79
2019-03-21T16:41:19.292Z,98164.45
2019-03-21T16:43:45.124Z,98161.41
2019-03-21T16:46:10.973Z,98159.55
2019-03-21T16:48:36.792Z,98163.36
2019-03-21T16:51:03.236Z,98159.13
2019-03-21T16:53:29.106Z,98163.59
2019-03-21T16:55:54.951Z,98159.91
2019-03-21T16:58:20.771Z,98159.25
2019-03-21T17:00:46.613Z,98169.56
2019-03-21T17:03:12.431Z,98169.42
2019-03-21T17:05:38.602Z,98168.22
2019-03-21T17:08:11.116Z,98168.73
2019-03-21T17:10:32.174Z,98165.56
2019-03-21T17:12:58.065Z,98170.19
2019-03-21T17:15:23.903Z,98168.34
2019-03-21T17:17:49.716Z,98163.44
2019-03-21T17:20:15.566Z,98169.48
2019-03-21T17:22:41.384Z,98175.16
2019-03-21T17:25:07.719Z,98181.13
2019-03-21T17:27:33.557Z,98178.66
2019-03-21T17:29:59.443Z,98180.53
2019-03-21T17:32:25.557Z,98183.78
2019-03-21T17:34:51.450Z,98180.48
2019-03-21T17:37:17.312Z,98182.77
2019-03-21T17:39:43.124Z,98182.44
2019-03-21T17:42:08.995Z,98188.77
2019-03-21T17:44:34.838Z,98195.16
2019-03-21T17:47:00.695Z,98190.41
2019-03-21T17:49:26.510Z,98191.53
2019-03-21T17:51:52.350Z,98194.37
2019-03-21T17:54:18.292Z,98190.02
2019-03-21T17:56:44.148Z,98194.34
2019-03-21T17:59:09.983Z,98197.64
2019-03-21T18:01:35.808Z,98196.45
2019-03-21T18:04:01.830Z,98203.02
2019-03-21T18:06:27.663Z,98201.50
2019-03-21T18:08:53.516Z,98204.03
2019-03-21T18:11:19.367Z,98200.39
2019-03-21T18:13:45.190Z,98199.44
2019-03-21T18:16:11.059Z,98198.16
2019-03-21T18:18:36.922Z,98193.81
2019-03-21T18:21:02.864Z,98195.33
2019-03-21T18:23:28.786Z,98209.39
2019-03-21T18:25:54.616Z,98202.02
2019-03-21T18:28:20.472Z,98205.53
2019-03-21T18:30:46.355Z,98214.11
2019-03-21T18:33:12.163Z,98211.54
2019-03-21T18:35:38.026Z,98215.07
2019-03-21T18:38:03.851Z,98223.92
2019-03-21T18:40:29.696Z,98222.47
2019-03-21T18:42:55.534Z,98226.19
2019-03-21T18:45:21.346Z,98224.45
2019-03-21T18:47:47.154Z,98220.73
2019-03-21T18:50:14.713Z,98219.44
2019-03-21T18:52:40.568Z,98225.09
2019-03-21T18:55:07.883Z,98209.66
2019-03-21T18:57:33.729Z,98218.59
2019-03-21T18:59:59.578Z,98218.09
2019-03-21T19:02:25.430Z,98218.09
2019-03-21T19:04:51.288Z,98216.52
2019-03-21T19:07:17.102Z,98217.58
2019-03-21T19:09:44.102Z,98222.39
2019-03-21T19:12:10.107Z,98228.22
2019-03-21T19:14:35.936Z,98219.79
2019-03-21T19:17:01.774Z,98225.05
2019-03-21T19:19:27.665Z,98226.08
2019-03-21T19:21:53.530Z,98226.85
2019-03-21T19:24:19.352Z,98225.55
2019-03-21T19:26:45.184Z,98231.90
2019-03-21T19:29:11.012Z,98227.70
2019-03-21T19:31:36.870Z,98217.95
2019-03-21T19:34:02.810Z,98213.97
2019-03-21T19:36:28.656Z,98220.81
2019-03-21T19:38:54.525Z,98223.42
2019-03-21T19:41:20.349Z,98221.29
2019-03-21T19:43:46.202Z,98219.45
2019-03-21T19:46:12.160Z,98224.45
2019-03-21T19:48:49.406Z,98219.98
2019-03-21T19:51:05.780Z,98219.98
2019-03-21T19:53:31.629Z,98219.98
2019-03-21T19:56:08.038Z,98223.89
2019-03-21T19:58:25.467Z,98225.50
2019-03-21T20:00:53.666Z,98227.34
2019-03-21T20:03:19.532Z,98222.09
2019-03-21T20:05:45.383Z,98216.00
2019-03-21T20:08:11.217Z,98217.87
2019-03-21T20:10:37.572Z,98221.00
2019-03-21T20:13:03.419Z,98223.55
2019-03-21T20:15:29.257Z,98223.55
2019-03-21T20:17:55.107Z,98223.54
2019-03-21T20:20:20.990Z,98228.59
2019-03-21T20:22:46.925Z,98229.53
2019-03-21T20:25:13.239Z,98228.69
2019-03-21T20:27:39.089Z,98236.70
2019-03-21T20:30:08.206Z,98236.70
2019-03-21T20:32:34.078Z,98231.62
2019-03-21T20:34:59.903Z,98231.62
2019-03-21T20:37:25.781Z,98233.53
2019-03-21T20:39:51.603Z,98246.61
2019-03-21T20:42:17.447Z,98241.95
2019-03-21T20:44:43.322Z,98241.80
2019-03-21T20:47:09.148Z,98241.78
2019-03-21T20:49:34.982Z,98238.19
2019-03-21T20:52:00.818Z,98243.64
2019-03-21T20:54:26.694Z,98241.32
2019-03-21T20:56:52.516Z,98236.65
2019-03-21T20:59:18.381Z,98248.25
2019-03-21T21:01:44.209Z,98240.09
2019-03-21T21:04:10.048Z,98247.90
2019-03-21T21:06:35.881Z,98243.67
2019-03-21T21:09:03.160Z,98241.72
2019-03-21T21:11:29.013Z,98237.23
2019-03-21T21:13:54.835Z,98239.31
2019-03-21T21:16:20.662Z,98241.43
2019-03-21T21:18:46.578Z,98237.43
2019-03-21T21:21:12.420Z,98236.97
2019-03-21T21:23:38.255Z,98236.86
2019-03-21T21:26:05.822Z,98239.98
2019-03-21T21:28:31.873Z,98238.43
2019-03-21T21:30:57.719Z,98238.43
2019-03-21T21:33:23.588Z,98245.33
2019-03-21T21:35:50.260Z,98245.01
2019-03-21T21:38:16.162Z,98237.48
2019-03-21T21:40:42.023Z,98243.04
2019-03-21T21:43:07.902Z,98236.42
2019-03-21T21:45:42.713Z,98238.23
2019-03-21T21:48:08.572Z,98242.53
2019-03-21T21:50:34.431Z,98239.87
2019-03-21T21:53:00.256Z,98232.61
2019-03-21T21:55:26.096Z,98237.70
2019-03-21T21:57:51.934Z,98234.61
2019-03-21T22:00:20.862Z,98235.31
2019-03-21T22:02:46.701Z,98234.48
2019-03-21T22:05:12.531Z,98231.66
2019-03-21T22:07:38.359Z,98234.01
2019-03-21T22:10:05.707Z,98236.41
2019-03-21T22:12:31.549Z,98235.03
2019-03-21T22:14:57.494Z,98227.35
2019-03-21T22:17:23.342Z,98239.22
2019-03-21T22:19:49.172Z,98234.22
2019-03-21T22:22:15.876Z,98242.38
2019-03-21T22:24:41.727Z,98238.00
2019-03-21T22:27:07.553Z,98228.59
2019-03-21T22:29:33.373Z,98240.95
2019-03-21T22:31:59.221Z,98246.31
2019-03-21T22:34:25.052Z,98242.48
2019-03-21T22:36:50.884Z,98237.73
2019-03-21T22:39:16.711Z,98240.55
2019-03-21T22:41:42.561Z,98237.14
2019-03-21T22:44:08.508Z,98247.55
2019-03-21T22:46:34.324Z,98242.89
2019-03-21T22:49:00.148Z,98244.14
2019-03-21T22:51:25.994Z,98241.20
2019-03-21T22:53:52.041Z,98238.28
2019-03-21T22:56:17.888Z,98237.94
2019-03-21T22:58:43.714Z,98239.80
2019-03-21T23:01:09.565Z,98229.27
2019-03-21T23:03:35.404Z,98227.33
2019-03-21T23:06:01.202Z,98226.34
2019-03-21T23:08:27.028Z,98210.34
2019-03-21T23:10:52.841Z,98218.47
2019-03-21T23:13:18.681Z,98218.72
2019-03-21T23:15:44.504Z,98219.33
2019-03-21T23:18:10.331Z,98219.11
2019-03-21T23:20:36.162Z,98227.74
2019-03-21T23:23:02.182Z,98226.87
2019-03-21T23:25:28.026Z,98226.47
2019-03-21T23:27:53.841Z,98226.47
2019-03-21T23:30:19.677Z,98225.80
2019-03-21T23:32:45.493Z,98231.19
2019-03-21T23:35:11.417Z,98227.14
2019-03-21T23:37:37.234Z,98233.48
2019-03-21T23:40:05.656Z,98233.01
2019-03-21T23:42:31.489Z,98232.93
2019-03-21T23:44:57.355Z,98232.93
2019-03-21T23:47:23.176Z,98236.09
2019-03-21T23:49:49.010Z,98230.03
2019-03-21T23:52:14.829Z,98230.87
2019-03-21T23:54:40.946Z,98230.27
2019-03-21T23:57:06.777Z,98230.44
2019-03-21T23:59:32.597Z,98230.72
